Dades meteomassalio
Diari Summary for Diciembre 10, 2017 Units:  English    Metric   Both
« Previous Day
Next Day »
Diari Semanal Mensual Anual Personalitzat
  Maxima: Minima: Mijana:
Temperatura: TemperatureC °F 0.0 °F 10 °F
Rosada: DewpointC °F -5.4 °F 3.3 °F
Humitat: Humidity % 50 % 64 %
Velocitat del vent: WindSpeedKMH mph 0.0 mph 9.9 mph
Racha vent: WindSpeedGustKMH mph - -
Vent:- - WNW
Pressio: PressurehPa in 998.2 in -
Pluja: 0.0 in    
Historical Graphs
 
 
Tabular Data for Diciembre 10, 2017
Time Temperature Dew Point Pressure Wind Wind Speed Wind Gust Humidity Rainfall Rate (Hourly) solar Conditions
TemperatureC °F DewpointC °F PressurehPa in Calm     Humidity % HourlyPrecipMM in SolarRadiationWatts/m^2 W/m2 Conditions
00:01 6.1 °F 2.2 °F 1022.2 in Calm     76 % 0.0 in 0.0 W/m2 CLR
00:06 6.1 °F 2.4 °F 1022.2 in Calm     77 % 0.0 in 0.0 W/m2 CLR
00:11 5.6 °F 1.8 °F 1021.9 in Calm     77 % 0.0 in 0.0 W/m2 CLR
00:21 5.0 °F 1.3 °F 1021.9 in Calm     77 % 0.0 in 0.0 W/m2 CLR
00:26 5.0 °F 1.3 °F 1021.9 in Calm     77 % 0.0 in 0.0 W/m2 CLR
00:31 5.0 °F 1.5 °F 1021.6 in Calm     78 % 0.0 in 0.0 W/m2 CLR
00:46 4.4 °F 1.1 °F 1021.6 in Calm     79 % 0.0 in 0.0 W/m2 CLR
00:51 4.4 °F 1.1 °F 1021.2 in Calm     79 % 0.0 in 0.0 W/m2 CLR
00:56 5.0 °F 1.7 °F 1021.2 in Calm     79 % 0.0 in 0.0 W/m2 CLR
01:01 5.0 °F 1.7 °F 1021.2 in Calm     79 % 0.0 in 0.0 W/m2 CLR
01:11 5.0 °F 1.8 °F 1021.2 in Calm     80 % 0.0 in 0.0 W/m2 CLR
01:16 5.0 °F 2.0 °F 1020.9 in Calm     81 % 0.0 in 0.0 W/m2 CLR
01:21 5.0 °F 1.8 °F 1020.9 in Calm     80 % 0.0 in 0.0 W/m2 CLR
01:26 4.4 °F 1.3 °F 1020.9 in Calm     80 % 0.0 in 0.0 W/m2 CLR
01:31 4.4 °F 1.3 °F 1020.9 in Calm     80 % 0.0 in 0.0 W/m2 CLR
01:36 4.4 °F 1.1 °F 1020.5 in Calm     79 % 0.0 in 0.0 W/m2 CLR
01:41 4.4 °F 1.3 °F 1020.5 in Calm     80 % 0.0 in 0.0 W/m2 CLR
01:46 4.4 °F 1.4 °F 1020.5 in Calm     81 % 0.0 in 0.0 W/m2 CLR
01:51 4.4 °F 1.4 °F 1020.2 in Calm     81 % 0.0 in 0.0 W/m2 CLR
02:01 3.9 °F 1.1 °F 1020.2 in Calm     82 % 0.0 in 0.0 W/m2 CLR
02:06 3.9 °F 1.3 °F 1020.2 in Calm     83 % 0.0 in 0.0 W/m2 CLR
02:11 4.4 °F 1.8 °F 1020.2 in Calm     83 % 0.0 in 0.0 W/m2 CLR
02:16 3.9 °F 1.3 °F 1020.2 in Calm     83 % 0.0 in 0.0 W/m2 CLR
02:26 3.3 °F 0.6 °F 1019.9 in Calm     82 % 0.0 in 0.0 W/m2 CLR
02:42 2.8 °F 0.2 °F 1019.9 in Calm     83 % 0.0 in 0.0 W/m2 CLR
02:47 2.8 °F 0.3 °F 1020.2 in Calm     84 % 0.0 in 0.0 W/m2 CLR
02:52 2.8 °F 0.3 °F 1020.2 in Calm     84 % 0.0 in 0.0 W/m2 CLR
02:57 3.3 °F 0.9 °F 1019.9 in Calm     84 % 0.0 in 0.0 W/m2 CLR
03:07 3.3 °F 1.1 °F 1019.9 in Calm     85 % 0.0 in 0.0 W/m2 CLR
03:17 3.3 °F 0.9 °F 1019.9 in Calm     84 % 0.0 in 0.0 W/m2 CLR
03:22 3.3 °F 0.7 °F 1019.9 in Calm     83 % 0.0 in 0.0 W/m2 CLR
03:27 2.8 °F 0.3 °F 1019.5 in Calm     84 % 0.0 in 0.0 W/m2 CLR
03:37 2.8 °F 0.3 °F 1019.5 in Calm     84 % 0.0 in 0.0 W/m2 CLR
03:42 2.2 °F -0.2 °F 1019.2 in Calm     84 % 0.0 in 0.0 W/m2 CLR
03:47 2.8 °F 0.3 °F 1019.2 in Calm     84 % 0.0 in 0.0 W/m2 CLR
03:52 2.8 °F 0.5 °F 1019.2 in Calm     85 % 0.0 in 0.0 W/m2 CLR
04:02 2.8 °F 0.5 °F 1019.2 in Calm     85 % 0.0 in 0.0 W/m2 CLR
04:19 2.2 °F 0.1 °F 1018.8 in Calm     86 % 0.0 in 0.0 W/m2 CLR
04:20 1.7 °F -0.4 °F 1018.8 in Calm     86 % 0.0 in 0.0 W/m2 CLR
04:23 1.7 °F -0.3 °F 1018.8 in Calm     87 % 0.0 in 0.0 W/m2 CLR
04:25 1.7 °F -0.4 °F 1018.8 in Calm     86 % 0.0 in 0.0 W/m2 CLR
04:30 1.7 °F -0.4 °F 1018.8 in Calm     86 % 0.0 in 0.0 W/m2 CLR
04:40 1.1 °F -0.8 °F 1018.8 in Calm     87 % 0.0 in 0.0 W/m2 CLR
04:50 1.1 °F -0.8 °F 1018.5 in Calm     87 % 0.0 in 0.0 W/m2 CLR
04:55 1.1 °F -0.8 °F 1018.5 in Calm     87 % 0.0 in 0.0 W/m2 CLR
05:01 1.1 °F -0.7 °F 1018.5 in Calm     88 % 0.0 in 0.0 W/m2 CLR
05:06 1.1 °F -0.8 °F 1018.5 in Calm     87 % 0.0 in 0.0 W/m2 CLR
05:11 1.1 °F -0.8 °F 1018.2 in Calm     87 % 0.0 in 0.0 W/m2 CLR
05:21 1.1 °F -0.8 °F 1018.2 in Calm     87 % 0.0 in 0.0 W/m2 CLR
05:26 1.1 °F -0.8 °F 1018.2 in Calm     87 % 0.0 in 0.0 W/m2 CLR
05:31 1.1 °F -0.7 °F 1018.2 in Calm     88 % 0.0 in 0.0 W/m2 CLR
05:36 1.1 °F -0.7 °F 1018.2 in Calm     88 % 0.0 in 0.0 W/m2 CLR
05:41 1.1 °F -0.7 °F 1018.2 in Calm     88 % 0.0 in 0.0 W/m2 CLR
05:46 1.1 °F -0.7 °F 1018.2 in Calm     88 % 0.0 in 0.0 W/m2 CLR
05:56 1.1 °F -0.7 °F 1018.2 in Calm     88 % 0.0 in 0.0 W/m2 CLR
06:06 0.6 °F -0.4 °F 1017.8 in WNW 20.4 mph 20.4 mph 93 % 0.0 in 0.0 W/m2 CLR
06:11 0.0 °F -2.4 °F 1017.8 in WNW 18.5 mph 18.5 mph 84 % 0.0 in 0.0 W/m2 CLR
06:16 0.0 °F -3.4 °F 1017.8 in WNW 18.5 mph 18.5 mph 78 % 0.0 in 0.0 W/m2 CLR
06:21 0.0 °F -4.6 °F 1017.5 in NW 22.5 mph 22.5 mph 71 % 0.0 in 0.0 W/m2 CLR
06:26 0.0 °F -5.0 °F 1017.8 in West 20.4 mph 20.4 mph 69 % 0.0 in 0.0 W/m2 CLR
06:31 0.0 °F -5.0 °F 1017.5 in West 14.8 mph 14.8 mph 69 % 0.0 in 0.0 W/m2 CLR
06:33 0.0 °F -5.0 °F 1017.5 in West 13.0 mph 13.0 mph 69 % 0.0 in 0.0 W/m2 CLR
06:38 0.0 °F -4.4 °F 1017.5 in NW 18.5 mph 18.5 mph 72 % 0.0 in 0.0 W/m2 CLR
06:48 0.0 °F -4.8 °F 1017.5 in WNW 27.8 mph 27.8 mph 70 % 0.0 in 0.0 W/m2 CLR
06:58 0.0 °F -5.4 °F 1017.2 in WNW 22.2 mph 22.2 mph 67 % 0.0 in 0.0 W/m2 CLR
07:13 2.2 °F -3.5 °F 1017.2 in West 19.3 mph 19.3 mph 66 % 0.0 in 0.0 W/m2 CLR
07:19 2.8 °F -2.7 °F 1017.5 in WNW 18.5 mph 18.5 mph 67 % 0.0 in 0.0 W/m2 CLR
07:24 3.3 °F -2.2 °F 1017.5 in West 22.2 mph 22.2 mph 67 % 0.0 in 0.0 W/m2 CLR
07:29 3.9 °F -1.7 °F 1017.2 in West 18.5 mph 18.5 mph 67 % 0.0 in 0.0 W/m2 CLR
07:34 5.0 °F -0.4 °F 1017.2 in WNW 14.5 mph 14.5 mph 68 % 0.0 in 0.0 W/m2 CLR
07:44 6.1 °F 0.7 °F 1017.5 in WNW 11.3 mph 11.3 mph 68 % 0.0 in 0.0 W/m2 CLR
07:49 6.7 °F 1.2 °F 1017.2 in West 11.1 mph 11.1 mph 68 % 0.0 in 0.0 W/m2 CLR
07:54 7.8 °F 2.4 °F 1017.2 in West 14.8 mph 14.8 mph 69 % 0.0 in 0.0 W/m2 CLR
08:09 7.8 °F 2.4 °F 1017.2 in West 7.4 mph 7.4 mph 69 % 0.0 in 0.0 W/m2 OVC
08:19 9.4 °F 4.1 °F 1017.2 in WNW 5.6 mph 5.6 mph 69 % 0.0 in 0.0 W/m2 OVC
08:24 9.4 °F 4.1 °F 1017.2 in WNW 5.6 mph 5.6 mph 69 % 0.0 in 0.0 W/m2 OVC
08:29 8.9 °F 3.5 °F 1017.2 in WNW 13.0 mph 13.0 mph 69 % 0.0 in 7.0 W/m2 BKN
08:34 8.3 °F 2.8 °F 1017.2 in WNW 16.7 mph 16.7 mph 68 % 0.0 in 11.0 W/m2 BKN
08:44 7.8 °F 1.8 °F 1017.2 in WNW 16.7 mph 16.7 mph 66 % 0.0 in 25.0 W/m2 BKN
08:49 7.8 °F 1.8 °F 1017.5 in WNW 18.5 mph 18.5 mph 66 % 0.0 in 30.0 W/m2 BKN
08:54 7.8 °F 1.6 °F 1017.5 in WNW 22.2 mph 22.2 mph 65 % 0.0 in 26.0 W/m2 BKN
08:59 7.8 °F 1.6 °F 1017.5 in NW 20.4 mph 20.4 mph 65 % 0.0 in 21.0 W/m2 BKN
09:04 8.3 °F 1.9 °F 1017.5 in NW 20.4 mph 20.4 mph 64 % 0.0 in 30.0 W/m2 BKN
09:09 8.9 °F 2.4 °F 1017.5 in WNW 12.9 mph 12.9 mph 64 % 0.0 in 37.0 W/m2 BKN
09:14 9.4 °F 2.9 °F 1017.2 in WNW 22.2 mph 22.2 mph 64 % 0.0 in 51.0 W/m2 BKN
09:24 12.2 °F 5.2 °F 1017.2 in WNW 24.1 mph 24.1 mph 62 % 0.0 in 81.0 W/m2 SCT
09:29 13.3 °F 6.2 °F 1017.2 in WNW 22.2 mph 22.2 mph 62 % 0.0 in 81.0 W/m2 FEW
09:39 13.9 °F 6.5 °F 1017.5 in WNW 29.6 mph 29.6 mph 61 % 0.0 in 70.0 W/m2 FEW
09:54 13.9 °F 6.2 °F 1017.2 in WNW 25.9 mph 25.9 mph 60 % 0.0 in 63.0 W/m2 SCT
09:59 14.4 °F 6.5 °F 1017.2 in WNW 25.9 mph 25.9 mph 59 % 0.0 in 42.0 W/m2 SCT
10:14 14.4 °F 6.3 °F 1016.8 in NW 24.1 mph 24.1 mph 58 % 0.0 in 86.0 W/m2 SCT
10:20 14.4 °F 6.3 °F 1016.5 in NW 18.5 mph 18.5 mph 58 % 0.0 in 165.0 W/m2 FEW
10:25 15.0 °F 6.8 °F 1016.5 in WNW 24.1 mph 24.1 mph 58 % 0.0 in 183.0 W/m2 CLR
10:40 15.0 °F 6.8 °F 1016.1 in WNW 16.7 mph 16.7 mph 58 % 0.0 in 171.0 W/m2 CLR
10:45 15.6 °F 7.3 °F 1016.1 in West 20.4 mph 20.4 mph 58 % 0.0 in 181.0 W/m2 CLR
10:50 15.6 °F 7.1 °F 1016.1 in WNW 20.4 mph 20.4 mph 57 % 0.0 in 186.0 W/m2 CLR
10:55 15.6 °F 7.1 °F 1015.8 in WNW 18.5 mph 18.5 mph 57 % 0.0 in 174.0 W/m2 CLR
11:00 15.6 °F 7.1 °F 1015.8 in NW 22.5 mph 22.5 mph 57 % 0.0 in 178.0 W/m2 CLR
11:01 15.6 °F 6.8 °F 1015.8 in NW 24.1 mph 24.1 mph 56 % 0.0 in 171.0 W/m2 CLR
11:06 15.6 °F 6.8 °F 1016.1 in WNW 16.7 mph 16.7 mph 56 % 0.0 in 155.0 W/m2 CLR
11:11 15.6 °F 6.8 °F 1016.1 in NW 25.9 mph 25.9 mph 56 % 0.0 in 153.0 W/m2 CLR
11:16 16.1 °F 7.3 °F 1015.8 in WNW 27.8 mph 27.8 mph 56 % 0.0 in 163.0 W/m2 CLR
11:21 16.1 °F 7.1 °F 1015.8 in WNW 33.3 mph 33.3 mph 55 % 0.0 in 171.0 W/m2 CLR
11:26 16.1 °F 7.1 °F 1015.5 in WNW 29.6 mph 29.6 mph 55 % 0.0 in 179.0 W/m2 CLR
11:31 16.1 °F 7.1 °F 1015.5 in WNW 27.8 mph 27.8 mph 55 % 0.0 in 174.0 W/m2 CLR
11:36 16.1 °F 6.8 °F 1015.5 in NW 25.9 mph 25.9 mph 54 % 0.0 in 165.0 W/m2 CLR
11:41 16.1 °F 6.8 °F 1015.5 in WNW 35.2 mph 35.2 mph 54 % 0.0 in 183.0 W/m2 CLR
11:46 16.1 °F 6.8 °F 1015.5 in NW 40.2 mph 40.2 mph 54 % 0.0 in 192.0 W/m2 CLR
11:51 16.1 °F 6.5 °F 1015.1 in NW 31.5 mph 31.5 mph 53 % 0.0 in 202.0 W/m2 CLR
11:56 16.1 °F 6.5 °F 1014.8 in NW 37.0 mph 37.0 mph 53 % 0.0 in 207.0 W/m2 CLR
12:01 16.1 °F 6.5 °F 1014.8 in NW 31.5 mph 31.5 mph 53 % 0.0 in 221.0 W/m2 CLR
12:06 16.7 °F 7.1 °F 1014.8 in NNW 27.8 mph 27.8 mph 53 % 0.0 in 221.0 W/m2 CLR
12:11 16.7 °F 7.1 °F 1014.4 in NW 25.9 mph 25.9 mph 53 % 0.0 in 281.0 W/m2 CLR
12:16 16.7 °F 7.1 °F 1014.1 in NNW 27.4 mph 27.4 mph 53 % 0.0 in 234.0 W/m2 CLR
12:22 16.7 °F 7.1 °F 1014.1 in NNW 20.9 mph 20.9 mph 53 % 0.0 in 211.0 W/m2 CLR
12:27 16.7 °F 6.8 °F 1013.8 in NW 22.2 mph 22.2 mph 52 % 0.0 in 204.0 W/m2 CLR
12:32 16.7 °F 6.8 °F 1013.4 in WNW 22.2 mph 22.2 mph 52 % 0.0 in 181.0 W/m2 CLR
12:37 16.7 °F 7.1 °F 1013.4 in North 24.1 mph 24.1 mph 53 % 0.0 in 162.0 W/m2 CLR
12:42 16.7 °F 6.8 °F 1013.4 in NW 25.9 mph 25.9 mph 52 % 0.0 in 149.0 W/m2 CLR
12:47 16.7 °F 6.8 °F 1013.1 in NW 18.5 mph 18.5 mph 52 % 0.0 in 142.0 W/m2 CLR
12:52 16.7 °F 7.1 °F 1013.1 in WNW 18.5 mph 18.5 mph 53 % 0.0 in 158.0 W/m2 CLR
12:57 16.7 °F 6.8 °F 1013.1 in WNW 20.4 mph 20.4 mph 52 % 0.0 in 158.0 W/m2 CLR
13:02 16.7 °F 7.1 °F 1013.1 in NW 18.5 mph 18.5 mph 53 % 0.0 in 160.0 W/m2 CLR
13:07 16.7 °F 6.8 °F 1012.8 in NW 20.4 mph 20.4 mph 52 % 0.0 in 179.0 W/m2 CLR
13:17 17.2 °F 7.3 °F 1012.8 in NW 16.7 mph 16.7 mph 52 % 0.0 in 186.0 W/m2 CLR
13:22 17.2 °F 7.3 °F 1012.4 in NW 25.7 mph 25.7 mph 52 % 0.0 in 167.0 W/m2 CLR
13:32 17.2 °F 7.0 °F 1012.1 in NW 16.7 mph 16.7 mph 51 % 0.0 in 188.0 W/m2 CLR
13:37 17.2 °F 7.0 °F 1012.1 in NW 16.7 mph 16.7 mph 51 % 0.0 in 197.0 W/m2 CLR
13:42 17.2 °F 7.0 °F 1011.7 in North 24.1 mph 24.1 mph 51 % 0.0 in 237.0 W/m2 CLR
13:47 17.8 °F 7.5 °F 1011.7 in NNW 22.2 mph 22.2 mph 51 % 0.0 in 221.0 W/m2 CLR
13:52 17.8 °F 7.2 °F 1011.7 in North 30.6 mph 30.6 mph 50 % 0.0 in 169.0 W/m2 CLR
13:57 17.8 °F 7.2 °F 1011.4 in NW 33.3 mph 33.3 mph 50 % 0.0 in 149.0 W/m2 CLR
14:02 17.2 °F 7.0 °F 1011.4 in NNW 29.6 mph 29.6 mph 51 % 0.0 in 176.0 W/m2 CLR
14:07 17.2 °F 7.0 °F 1011.4 in NNW 31.5 mph 31.5 mph 51 % 0.0 in 151.0 W/m2 CLR
14:22 17.2 °F 7.0 °F 1011.1 in NW 20.4 mph 20.4 mph 51 % 0.0 in 105.0 W/m2 CLR
14:27 17.2 °F 7.0 °F 1011.4 in NNW 19.3 mph 19.3 mph 51 % 0.0 in 90.0 W/m2 CLR
14:32 17.2 °F 7.0 °F 1011.1 in NW 24.1 mph 24.1 mph 51 % 0.0 in 84.0 W/m2 CLR
14:37 17.2 °F 7.0 °F 1010.7 in NW 22.5 mph 22.5 mph 51 % 0.0 in 90.0 W/m2 CLR
14:42 17.2 °F 7.0 °F 1010.4 in NW 27.8 mph 27.8 mph 51 % 0.0 in 137.0 W/m2 CLR
14:47 17.2 °F 7.0 °F 1010.4 in NW 31.5 mph 31.5 mph 51 % 0.0 in 114.0 W/m2 CLR
14:52 17.2 °F 7.0 °F 1010.4 in NNW 29.6 mph 29.6 mph 51 % 0.0 in 116.0 W/m2 CLR
15:02 17.2 °F 7.0 °F 1010.4 in NNW 27.4 mph 27.4 mph 51 % 0.0 in 116.0 W/m2 CLR
15:07 17.2 °F 7.0 °F 1010.4 in NNW 31.5 mph 31.5 mph 51 % 0.0 in 79.0 W/m2 CLR
15:12 17.2 °F 7.0 °F 1010.4 in NNW 27.8 mph 27.8 mph 51 % 0.0 in 54.0 W/m2 FEW
15:17 16.7 °F 6.8 °F 1010.0 in NNW 18.5 mph 18.5 mph 52 % 0.0 in 44.0 W/m2 SCT
15:22 16.7 °F 6.8 °F 1010.0 in NNW 22.2 mph 22.2 mph 52 % 0.0 in 40.0 W/m2 SCT
15:27 16.7 °F 6.8 °F 1009.7 in NW 16.7 mph 16.7 mph 52 % 0.0 in 42.0 W/m2 BKN
15:37 16.1 °F 6.2 °F 1009.7 in NNW 14.8 mph 14.8 mph 52 % 0.0 in 49.0 W/m2 SCT
15:42 16.1 °F 6.5 °F 1009.7 in NNW 14.8 mph 14.8 mph 53 % 0.0 in 44.0 W/m2 SCT
15:47 16.1 °F 6.5 °F 1009.7 in NW 14.8 mph 14.8 mph 53 % 0.0 in 28.0 W/m2 BKN
15:52 16.1 °F 6.5 °F 1009.4 in NW 14.8 mph 14.8 mph 53 % 0.0 in 33.0 W/m2 BKN
15:57 16.1 °F 6.5 °F 1009.4 in NW 11.1 mph 11.1 mph 53 % 0.0 in 39.0 W/m2 BKN
16:02 16.1 °F 6.5 °F 1009.0 in NW 8.0 mph 8.0 mph 53 % 0.0 in 39.0 W/m2 BKN
16:07 15.6 °F 6.0 °F 1009.0 in NW 13.0 mph 13.0 mph 53 % 0.0 in 39.0 W/m2 BKN
16:12 15.6 °F 6.0 °F 1008.7 in Calm     53 % 0.0 in 32.0 W/m2 BKN
16:17 15.6 °F 6.0 °F 1008.4 in Calm     53 % 0.0 in 30.0 W/m2 BKN
16:22 15.0 °F 5.8 °F 1008.4 in Calm     54 % 0.0 in 25.0 W/m2 BKN
16:27 15.0 °F 5.8 °F 1008.4 in Calm     54 % 0.0 in 21.0 W/m2 BKN
16:32 15.0 °F 5.8 °F 1008.4 in Calm     54 % 0.0 in 18.0 W/m2 BKN
16:43 15.0 °F 5.8 °F 1008.4 in Calm     54 % 0.0 in 12.0 W/m2 BKN
16:48 14.4 °F 5.2 °F 1008.4 in Calm     54 % 0.0 in 11.0 W/m2 BKN
16:58 13.9 °F 4.7 °F 1008.0 in Calm     54 % 0.0 in 7.0 W/m2 BKN
17:03 13.3 °F 4.2 °F 1008.0 in Calm     54 % 0.0 in 7.0 W/m2 BKN
17:08 12.8 °F 3.9 °F 1008.0 in Calm     55 % 0.0 in 5.0 W/m2 OVC
17:18 12.2 °F 3.2 °F 1008.0 in WNW 1.9 mph 1.9 mph 54 % 0.0 in 0.0 W/m2 OVC
17:23 12.2 °F 3.2 °F 1007.7 in Calm     54 % 0.0 in 0.0 W/m2 OVC
17:38 11.1 °F 2.2 °F 1007.3 in Calm     54 % 0.0 in 0.0 W/m2 OVC
17:43 11.1 °F 2.2 °F 1007.3 in Calm     54 % 0.0 in 0.0 W/m2 CLR
17:48 10.6 °F 1.9 °F 1007.0 in Calm     55 % 0.0 in 0.0 W/m2 CLR
17:58 11.1 °F 2.7 °F 1007.0 in Calm     56 % 0.0 in 0.0 W/m2 CLR
18:08 11.1 °F 2.7 °F 1006.7 in Calm     56 % 0.0 in 0.0 W/m2 CLR
18:13 11.1 °F 2.7 °F 1007.0 in Calm     56 % 0.0 in 0.0 W/m2 CLR
18:18 11.1 °F 2.7 °F 1007.0 in Calm     56 % 0.0 in 0.0 W/m2 CLR
18:23 10.6 °F 2.4 °F 1007.0 in Calm     57 % 0.0 in 0.0 W/m2 CLR
18:38 10.6 °F 2.1 °F 1006.7 in Calm     56 % 0.0 in 0.0 W/m2 CLR
18:43 10.6 °F 2.1 °F 1006.3 in Calm     56 % 0.0 in 0.0 W/m2 CLR
18:53 10.6 °F 2.6 °F 1006.3 in Calm     58 % 0.0 in 0.0 W/m2 CLR
18:58 11.1 °F 3.4 °F 1006.0 in Calm     59 % 0.0 in 0.0 W/m2 CLR
19:03 11.1 °F 3.4 °F 1006.0 in Calm     59 % 0.0 in 0.0 W/m2 CLR
19:08 11.1 °F 3.4 °F 1005.6 in Calm     59 % 0.0 in 0.0 W/m2 CLR
19:13 11.1 °F 3.6 °F 1005.6 in Calm     60 % 0.0 in 0.0 W/m2 CLR
19:18 10.6 °F 3.1 °F 1005.6 in Calm     60 % 0.0 in 0.0 W/m2 CLR
19:23 10.6 °F 3.3 °F 1005.6 in Calm     61 % 0.0 in 0.0 W/m2 CLR
19:29 10.0 °F 2.8 °F 1005.3 in Calm     61 % 0.0 in 0.0 W/m2 CLR
19:34 10.0 °F 2.8 °F 1005.3 in Calm     61 % 0.0 in 0.0 W/m2 CLR
19:39 10.6 °F 3.8 °F 1005.3 in Calm     63 % 0.0 in 0.0 W/m2 CLR
19:49 10.6 °F 4.0 °F 1005.0 in Calm     64 % 0.0 in 0.0 W/m2 CLR
19:54 10.6 °F 4.2 °F 1005.0 in Calm     65 % 0.0 in 0.0 W/m2 CLR
19:59 10.0 °F 3.7 °F 1005.0 in Calm     65 % 0.0 in 0.0 W/m2 CLR
20:04 10.0 °F 3.3 °F 1004.6 in Calm     63 % 0.0 in 0.0 W/m2 CLR
20:09 10.6 °F 3.8 °F 1004.6 in Calm     63 % 0.0 in 0.0 W/m2 CLR
20:19 10.6 °F 3.1 °F 1003.9 in Calm     60 % 0.0 in 0.0 W/m2 CLR
20:24 10.6 °F 2.9 °F 1003.6 in Calm     59 % 0.0 in 0.0 W/m2 CLR
20:29 10.6 °F 2.6 °F 1003.6 in SW 3.2 mph 3.2 mph 58 % 0.0 in 0.0 W/m2 CLR
20:34 10.6 °F 2.4 °F 1002.9 in SW 1.9 mph   57 % 0.0 in 0.0 W/m2 CLR
20:39 12.2 °F 3.7 °F 1003.3 in Calm     56 % 0.0 in 0.0 W/m2 CLR
20:44 13.3 °F 4.5 °F 1003.3 in ENE 9.7 mph 9.7 mph 55 % 0.0 in 0.0 W/m2 CLR
20:49 12.8 °F 4.4 °F 1003.6 in ENE 18.5 mph 18.5 mph 57 % 0.0 in 0.0 W/m2 CLR
20:59 13.3 °F 5.7 °F 1003.6 in Calm     60 % 0.0 in 0.0 W/m2 CLR
21:04 13.3 °F 5.7 °F 1003.6 in NE 14.8 mph 14.8 mph 60 % 0.0 in 0.0 W/m2 CLR
21:09 12.8 °F 5.2 °F 1003.6 in East 19.3 mph 19.3 mph 60 % 0.0 in 0.0 W/m2 CLR
21:14 12.8 °F 5.2 °F 1003.3 in ENE 16.7 mph 16.7 mph 60 % 0.0 in 0.0 W/m2 CLR
21:19 12.8 °F 5.4 °F 1003.3 in Calm     61 % 0.0 in 0.0 W/m2 CLR
21:29 12.8 °F 5.2 °F 1002.9 in ENE 13.0 mph 13.0 mph 60 % 0.0 in 0.0 W/m2 CLR
21:34 12.2 °F 4.7 °F 1002.9 in Calm     60 % 0.0 in 0.0 W/m2 CLR
21:39 12.2 °F 4.9 °F 1002.9 in Calm     61 % 0.0 in 0.0 W/m2 CLR
21:49 11.7 °F 4.4 °F 1002.3 in Calm     61 % 0.0 in 0.0 W/m2 CLR
21:54 11.1 °F 3.9 °F 1002.3 in Calm     61 % 0.0 in 0.0 W/m2 CLR
21:59 11.1 °F 3.9 °F 1001.9 in Calm     61 % 0.0 in 0.0 W/m2 CLR
22:04 11.1 °F 3.9 °F 1001.6 in Calm     61 % 0.0 in 0.0 W/m2 CLR
22:09 11.1 °F 3.9 °F 1001.6 in Calm     61 % 0.0 in 0.0 W/m2 CLR
22:14 11.1 °F 3.6 °F 1001.2 in WSW 1.6 mph   60 % 0.0 in 0.0 W/m2 CLR
22:19 10.6 °F 3.1 °F 1001.2 in West 3.7 mph   60 % 0.0 in 0.0 W/m2 CLR
22:21 11.1 °F 3.6 °F 1001.2 in West 3.7 mph 3.7 mph 60 % 0.0 in 0.0 W/m2 CLR
22:26 11.7 °F 3.9 °F 1000.9 in West 6.4 mph 6.4 mph 59 % 0.0 in 0.0 W/m2 CLR
22:31 11.7 °F 3.9 °F 1000.6 in Calm     59 % 0.0 in 0.0 W/m2 CLR
22:36 11.1 °F 3.4 °F 1000.6 in Calm     59 % 0.0 in 0.0 W/m2 CLR
22:41 11.1 °F 3.4 °F 1000.6 in WSW 3.7 mph 3.7 mph 59 % 0.0 in 0.0 W/m2 CLR
22:46 10.6 °F 2.6 °F 1000.2 in Calm     58 % 0.0 in 0.0 W/m2 CLR
22:51 10.6 °F 2.6 °F 1000.2 in Calm     58 % 0.0 in 0.0 W/m2 CLR
22:56 10.6 °F 3.1 °F 1000.2 in Calm     60 % 0.0 in 0.0 W/m2 CLR
23:01 10.0 °F 2.6 °F 1000.2 in Calm     60 % 0.0 in 0.0 W/m2 CLR
23:16 9.4 °F 2.1 °F 999.5 in Calm     60 % 0.0 in 0.0 W/m2 CLR
23:26 9.4 °F 2.3 °F 999.5 in Calm     61 % 0.0 in 0.0 W/m2 CLR
23:41 10.0 °F 3.1 °F 999.2 in Calm     62 % 0.0 in 0.0 W/m2 CLR
23:46 10.0 °F 3.1 °F 998.9 in Calm     62 % 0.0 in 0.0 W/m2 CLR
23:51 10.0 °F 3.3 °F 998.5 in Calm     63 % 0.0 in 0.0 W/m2 CLR
23:56 10.0 °F 3.1 °F 998.2 in Calm     62 % 0.0 in 0.0 W/m2 CLR
Lo Temps de Massalio
Compliments of Weather Underground - 1 mb